Time;durP1;ratioP1;P1;durP2;ratioP2;P2;SDS_P1;SDS_P2;PMS_P1;PMS_P2;Temp;Humidity;BMP_temperature;BMP_pressure;BME280_temperature;BME280_humidity;BME280_pressure;Samples;Min_cycle;Max_cycle;Signal;HPM_P1;HPM_P2
2021/04/29 00:01:43;;;;;;;4.63;2.60;;;;;;;11.42;61.73;99784.38;5056961;28;20942;-70
2021/04/29 00:04:09;;;;;;;14.40;3.30;;;;;;;11.43;62.40;99779.75;5056873;28;20441;-70
2021/04/29 00:06:35;;;;;;;3.20;2.27;;;;;;;11.44;62.80;99775.91;5056868;28;20485;-70
2021/04/29 00:09:02;;;;;;;5.60;2.80;;;;;;;11.45;62.68;99777.47;5056696;28;20488;-70
2021/04/29 00:11:29;;;;;;;4.80;2.90;;;;;;;11.45;62.86;99775.56;5056786;28;20453;-70
2021/04/29 00:13:55;;;;;;;4.97;2.00;;;;;;;11.46;62.75;99779.06;5056743;28;20458;-70
2021/04/29 00:16:21;;;;;;;4.67;3.13;;;;;;;11.44;63.17;99775.91;5062727;28;20473;-69
2021/04/29 00:18:47;;;;;;;3.00;2.20;;;;;;;11.42;62.40;99778.94;5056677;28;20458;-70
2021/04/29 00:21:14;;;;;;;6.90;2.80;;;;;;;11.40;60.37;99773.03;5056609;28;20438;-70
2021/04/29 00:23:40;;;;;;;8.03;3.07;;;;;;;11.36;59.42;99777.53;5056213;28;20939;-70
2021/04/29 00:26:05;;;;;;;4.47;2.87;;;;;;;11.33;58.96;99776.28;5056479;28;20456;-70
2021/04/29 00:28:32;;;;;;;4.37;2.30;;;;;;;11.26;58.87;99767.06;5056355;28;20494;-70
2021/04/29 00:30:58;;;;;;;8.40;3.87;;;;;;;11.20;59.10;99769.16;5056417;28;20442;-69
2021/04/29 00:33:25;;;;;;;6.07;3.00;;;;;;;11.17;60.06;99779.84;5056305;28;20437;-69
2021/04/29 00:35:51;;;;;;;4.53;2.80;;;;;;;11.13;60.92;99774.28;5056359;28;20811;-70
2021/04/29 00:38:17;;;;;;;2.43;2.10;;;;;;;11.13;61.82;99771.56;5055901;28;20481;-69
2021/04/29 00:40:44;;;;;;;5.30;3.17;;;;;;;11.12;62.29;99769.97;5056226;28;20939;-69
2021/04/29 00:43:11;;;;;;;3.93;2.33;;;;;;;11.10;62.96;99769.50;5056160;28;20440;-70
2021/04/29 00:45:38;;;;;;;5.20;1.77;;;;;;;11.05;63.38;99764.25;5056350;28;20448;-70
2021/04/29 00:48:05;;;;;;;4.37;2.37;;;;;;;11.06;63.73;99768.53;5055957;28;20482;-69
2021/04/29 00:50:31;;;;;;;4.23;2.57;;;;;;;11.08;64.02;99760.91;5056113;28;20492;-69
2021/04/29 00:52:57;;;;;;;2.43;2.03;;;;;;;11.11;63.92;99763.75;5056092;28;20441;-70
2021/04/29 00:55:23;;;;;;;3.60;2.23;;;;;;;11.16;64.54;99778.25;5055983;28;20472;-70
2021/04/29 00:57:49;;;;;;;5.57;3.10;;;;;;;11.13;64.03;99760.72;5055612;28;20986;-69
2021/04/29 01:00:16;;;;;;;5.13;2.97;;;;;;;11.13;64.67;99760.72;5055876;28;20448;-70
2021/04/29 01:02:50;;;;;;;5.47;2.67;;;;;;;11.14;62.90;99748.75;5055849;28;20818;-69
2021/04/29 01:05:20;;;;;;;6.73;3.33;;;;;;;11.13;61.46;99760.72;5055932;28;20456;-69
2021/04/29 01:07:52;;;;;;;5.13;2.67;;;;;;;11.09;61.58;99757.84;5055787;28;20486;-70
2021/04/29 01:10:25;;;;;;;5.20;2.60;;;;;;;11.05;61.32;99745.28;5054976;28;20922;-69
2021/04/29 01:12:56;;;;;;;7.67;3.60;;;;;;;11.01;61.79;99744.34;5055774;28;20422;-69
2021/04/29 01:15:23;;;;;;;5.00;3.23;;;;;;;10.95;61.65;99735.59;5055636;28;20430;-69
2021/04/29 01:17:50;;;;;;;3.67;2.87;;;;;;;10.99;61.69;99741.97;5055537;28;20458;-69
2021/04/29 01:20:21;;;;;;;7.80;3.30;;;;;;;11.04;62.26;99743.69;5055510;28;20450;-69
2021/04/29 01:22:55;;;;;;;6.13;2.13;;;;;;;11.13;63.39;99749.09;5055264;28;20947;-69
2021/04/29 01:25:23;;;;;;;4.90;2.50;;;;;;;11.18;63.59;99746.97;5055353;28;20465;-69
2021/04/29 01:27:50;;;;;;;5.80;3.10;;;;;;;11.22;64.38;99745.22;5054890;28;21007;-70
2021/04/29 01:30:18;;;;;;;8.53;5.03;;;;;;;11.21;64.76;99742.84;5055298;28;20446;-70
2021/04/29 01:32:44;;;;;;;8.60;2.50;;;;;;;11.24;64.10;99745.66;5055413;28;20450;-70
2021/04/29 01:35:12;;;;;;;4.90;3.10;;;;;;;11.27;63.99;99747.75;5055205;28;20442;-70
2021/04/29 01:37:39;;;;;;;3.80;2.60;;;;;;;11.31;64.21;99745.19;5054878;28;20475;-69
2021/04/29 01:40:08;;;;;;;5.20;2.70;;;;;;;11.32;64.79;99734.00;5055177;28;20523;-68
2021/04/29 01:42:35;;;;;;;3.40;1.80;;;;;;;11.35;65.24;99733.34;5055128;28;20450;-68
2021/04/29 01:45:03;;;;;;;2.23;2.00;;;;;;;11.36;65.07;99726.78;5055103;28;20442;-68
2021/04/29 01:47:31;;;;;;;7.50;3.20;;;;;;;11.36;64.87;99728.72;5054857;28;20497;-68
2021/04/29 01:49:58;;;;;;;6.40;2.83;;;;;;;11.37;64.05;99725.66;5054923;28;20442;-68
2021/04/29 01:52:24;;;;;;;5.20;2.53;;;;;;;11.37;64.05;99720.25;5054706;28;20948;-68
2021/04/29 01:54:50;;;;;;;7.03;4.03;;;;;;;11.40;63.83;99720.72;5054542;28;20939;-68
2021/04/29 01:57:17;;;;;;;9.00;3.10;;;;;;;11.40;63.70;99713.38;5054730;28;20474;-68
2021/04/29 01:59:43;;;;;;;4.60;2.90;;;;;;;11.40;62.23;99718.03;5054720;28;20446;-68
2021/04/29 02:02:10;;;;;;;6.17;3.10;;;;;;;11.36;60.97;99710.53;5054666;28;20496;-68
2021/04/29 02:04:36;;;;;;;3.97;2.77;;;;;;;11.35;60.66;99714.38;5056234;28;20465;-68
2021/04/29 02:07:02;;;;;;;5.70;2.50;;;;;;;11.33;60.71;99713.91;5059135;28;20561;-69
2021/04/29 02:09:28;;;;;;;5.67;2.60;;;;;;;11.33;60.57;99708.50;5054193;28;20999;-69
2021/04/29 02:11:58;;;;;;;4.67;2.37;;;;;;;11.31;60.17;99699.88;5054500;28;20517;-69
2021/04/29 02:14:30;;;;;;;6.57;2.50;;;;;;;11.30;59.95;99698.28;5054451;28;20932;-68
2021/04/29 02:16:58;;;;;;;6.93;2.93;;;;;;;11.31;61.25;99697.16;5054363;28;20472;-69
2021/04/29 02:19:27;;;;;;;2.77;1.90;;;;;;;11.32;62.12;99690.63;5054427;28;20435;-69
2021/04/29 02:21:53;;;;;;;3.90;2.77;;;;;;;11.32;62.82;99690.63;5053201;28;20438;-69
2021/04/29 02:24:20;;;;;;;6.27;2.23;;;;;;;11.33;62.85;99691.41;5054289;28;20456;-69
2021/04/29 02:26:49;;;;;;;5.17;2.53;;;;;;;11.36;62.42;99680.69;5054294;28;20444;-69
2021/04/29 02:29:15;;;;;;;3.50;2.70;;;;;;;11.37;62.42;99682.28;5054137;28;20478;-69
2021/04/29 02:31:42;;;;;;;2.70;1.97;;;;;;;11.39;62.66;99678.47;5054108;28;20446;-69
2021/04/29 02:34:08;;;;;;;2.90;2.27;;;;;;;11.41;62.80;99677.00;5053784;28;20955;-69
2021/04/29 02:36:36;;;;;;;8.67;4.57;;;;;;;11.44;62.32;99681.00;5054084;28;20446;-69
2021/04/29 02:39:05;;;;;;;4.30;2.30;;;;;;;11.47;62.06;99673.00;5053651;28;20469;-69
2021/04/29 02:41:32;;;;;;;2.93;2.33;;;;;;;11.49;62.10;99669.94;5053982;28;20469;-69
2021/04/29 02:44:00;;;;;;;4.33;2.90;;;;;;;11.51;62.08;99670.41;5053927;28;20788;-69
2021/04/29 02:46:27;;;;;;;4.83;2.50;;;;;;;11.53;62.35;99662.75;5053905;28;20454;-69
2021/04/29 02:48:53;;;;;;;3.40;2.07;;;;;;;11.54;62.57;99664.31;5053673;28;20862;-69
2021/04/29 02:51:20;;;;;;;2.90;2.40;;;;;;;11.56;62.89;99662.09;5053824;28;20447;-69
2021/04/29 02:53:47;;;;;;;5.60;2.00;;;;;;;11.57;62.93;99660.97;5053609;28;20442;-69
2021/04/29 02:56:13;;;;;;;4.83;2.53;;;;;;;11.55;61.00;99660.47;5053728;28;20434;-69
2021/04/29 02:58:48;;;;;;;5.57;2.33;;;;;;;11.52;60.27;99656.53;5053600;28;20509;-68
2021/04/29 03:01:15;;;;;;;2.20;2.00;;;;;;;11.47;59.89;99661.34;5053707;28;20430;-68
2021/04/29 03:03:43;;;;;;;4.47;2.73;;;;;;;11.45;60.55;99658.16;5053560;28;20445;-69
2021/04/29 03:06:09;;;;;;;3.40;2.47;;;;;;;11.45;60.54;99652.75;5053608;28;20446;-68
2021/04/29 03:08:35;;;;;;;4.13;2.63;;;;;;;11.43;60.07;99655.00;5053413;28;20482;-68
2021/04/29 03:11:04;;;;;;;5.43;2.97;;;;;;;11.41;59.66;99649.09;5053472;28;20454;-68
2021/04/29 03:13:30;;;;;;;8.30;2.77;;;;;;;11.39;60.25;99649.44;5053470;28;20454;-68
2021/04/29 03:15:56;;;;;;;4.00;2.13;;;;;;;11.35;61.68;99649.28;5053360;28;20450;-70
2021/04/29 03:18:22;;;;;;;3.57;2.00;;;;;;;11.38;63.39;99645.16;5053253;28;20462;-69
2021/04/29 03:20:48;;;;;;;5.23;2.60;;;;;;;11.41;64.25;99654.53;5053327;28;20815;-69
2021/04/29 03:23:14;;;;;;;2.30;2.10;;;;;;;11.41;64.50;99643.69;5053350;28;20523;-69
2021/04/29 03:25:40;;;;;;;7.70;2.90;;;;;;;11.45;65.06;99644.59;5052925;28;20458;-69
2021/04/29 03:28:07;;;;;;;4.67;3.10;;;;;;;11.46;64.84;99648.91;5053121;28;20482;-69
2021/04/29 03:30:33;;;;;;;4.73;2.30;;;;;;;11.35;64.21;99640.38;5053260;28;20439;-69
2021/04/29 03:33:00;;;;;;;6.53;2.90;;;;;;;11.39;64.22;99645.94;5052752;28;20953;-69
2021/04/29 03:35:25;;;;;;;4.77;2.60;;;;;;;11.40;64.07;99642.09;5053294;28;20449;-69
2021/04/29 03:40:21;;;;;;;4.90;2.80;;;;;;;11.44;63.48;99657.38;5051508;28;20466;-66
2021/04/29 03:42:47;;;;;;;8.43;3.40;;;;;;;11.45;63.43;99666.31;5052850;28;20462;-67
2021/04/29 03:45:13;;;;;;;2.90;2.20;;;;;;;11.45;62.74;99680.66;5053249;28;20486;-66
2021/04/29 03:47:40;;;;;;;4.13;3.27;;;;;;;11.45;62.98;99677.16;5053065;28;20489;-66
2021/04/29 03:50:07;;;;;;;6.87;2.40;;;;;;;11.43;64.47;99684.84;5053017;28;20519;-66
2021/04/29 03:52:33;;;;;;;4.37;2.63;;;;;;;11.44;63.88;99691.84;5053025;28;20446;-66
2021/04/29 03:55:00;;;;;;;10.33;2.60;;;;;;;11.42;62.77;99689.47;5052386;28;20471;-66
2021/04/29 03:57:25;;;;;;;6.70;3.80;;;;;;;11.37;62.47;99690.41;5052978;28;20453;-66
2021/04/29 03:59:51;;;;;;;2.70;2.00;;;;;;;11.33;62.75;99700.38;5052879;28;20466;-66
2021/04/29 04:02:18;;;;;;;3.93;2.83;;;;;;;11.31;63.30;99708.00;5052954;28;20518;-66
2021/04/29 04:04:44;;;;;;;5.23;2.50;;;;;;;11.26;61.80;99691.16;5052920;28;20438;-66
2021/04/29 04:07:10;;;;;;;4.13;2.77;;;;;;;11.21;63.37;99694.84;5052918;28;20533;-66
2021/04/29 04:09:36;;;;;;;4.43;3.37;;;;;;;11.22;66.94;99687.50;5052723;28;20483;-66
2021/04/29 04:12:02;;;;;;;3.57;1.97;;;;;;;11.01;69.24;99680.09;5052946;28;20453;-65
2021/04/29 04:14:28;;;;;;;4.00;3.63;;;;;;;10.79;70.92;99664.88;5053306;28;20442;-63
2021/04/29 04:16:54;;;;;;;2.27;1.97;;;;;;;10.77;72.38;99653.59;5052997;28;20454;-64
2021/04/29 04:19:21;;;;;;;5.50;2.83;;;;;;;10.84;73.85;99656.56;5053626;28;20552;-64
2021/04/29 04:21:47;;;;;;;6.83;3.27;;;;;;;10.81;73.73;99692.47;5052901;28;20935;-66
2021/04/29 04:24:13;;;;;;;5.77;3.30;;;;;;;10.80;75.13;99688.16;5052713;28;20444;-64
2021/04/29 04:26:39;;;;;;;5.13;2.83;;;;;;;10.80;77.84;99680.03;5052804;28;21016;-63
2021/04/29 04:29:05;;;;;;;4.83;2.70;;;;;;;10.79;79.50;99662.19;5052585;28;20489;-66
2021/04/29 04:31:31;;;;;;;2.90;2.03;;;;;;;10.70;79.27;99649.78;5052971;28;20446;-64
2021/04/29 04:33:56;;;;;;;2.47;2.13;;;;;;;10.55;79.60;99656.53;5052661;28;20882;-63
2021/04/29 04:36:23;;;;;;;2.20;2.00;;;;;;;10.34;83.51;99653.72;5052645;28;20442;-64
2021/04/29 04:38:49;;;;;;;3.70;3.07;;;;;;;10.24;86.23;99618.88;5052347;28;20888;-63
2021/04/29 04:41:15;;;;;;;4.63;3.37;;;;;;;9.95;87.16;99614.13;5052546;28;20525;-64
2021/04/29 04:43:41;;;;;;;3.23;2.20;;;;;;;9.77;87.64;99608.75;5052700;28;20445;-64
2021/04/29 04:46:07;;;;;;;4.07;3.17;;;;;;;9.83;88.10;99615.59;5055696;28;20527;-64
2021/04/29 04:48:33;;;;;;;3.90;2.50;;;;;;;9.83;87.45;99612.88;5056386;28;20492;-64
2021/04/29 04:50:59;;;;;;;5.80;3.93;;;;;;;9.88;87.02;99592.22;5056112;28;20529;-64
2021/04/29 04:53:26;;;;;;;7.40;3.00;;;;;;;9.93;86.71;99584.72;5056070;28;20442;-64
2021/04/29 04:55:52;;;;;;;7.30;2.93;;;;;;;9.96;87.27;99575.97;5055986;28;20438;-63
2021/04/29 04:58:18;;;;;;;6.47;3.87;;;;;;;9.94;86.46;99577.38;5055940;28;20458;-64
2021/04/29 05:00:45;;;;;;;3.20;2.67;;;;;;;9.94;85.48;99596.31;5055863;28;21013;-63
2021/04/29 05:03:11;;;;;;;5.53;2.80;;;;;;;9.87;84.15;99580.56;5055826;28;20468;-63
2021/04/29 05:05:40;;;;;;;4.93;2.87;;;;;;;9.93;85.28;99578.50;5055876;28;20469;-63
2021/04/29 05:08:06;;;;;;;4.90;2.97;;;;;;;9.98;86.19;99599.97;5055326;28;20477;-65
2021/04/29 05:10:34;;;;;;;14.70;4.10;;;;;;;10.01;85.10;99626.41;5055470;28;20442;-65
2021/04/29 05:13:02;;;;;;;2.80;2.43;;;;;;;10.05;85.67;99649.00;5055784;28;20446;-65
2021/04/29 05:15:28;;;;;;;3.30;2.80;;;;;;;10.08;86.64;99648.34;5055341;28;20983;-65
2021/04/29 05:17:54;;;;;;;7.83;3.57;;;;;;;10.19;86.66;99660.44;5055156;28;20449;-65
2021/04/29 05:20:20;;;;;;;3.67;3.23;;;;;;;10.28;86.78;99673.97;5055184;28;20438;-64
2021/04/29 05:22:47;;;;;;;4.57;3.20;;;;;;;10.34;86.20;99689.72;5055546;28;20443;-65
2021/04/29 05:25:13;;;;;;;4.23;3.33;;;;;;;10.36;84.93;99678.56;5055506;28;20538;-64
2021/04/29 05:27:39;;;;;;;10.70;3.60;;;;;;;10.40;85.69;99673.28;5055260;28;20457;-64
2021/04/29 05:30:06;;;;;;;4.03;3.10;;;;;;;10.41;86.66;99667.56;5055336;28;20459;-65
2021/04/29 05:32:32;;;;;;;4.17;3.17;;;;;;;10.50;87.53;99675.69;5055498;28;20442;-65
2021/04/29 05:34:58;;;;;;;4.83;4.20;;;;;;;10.49;88.35;99668.66;5055349;28;20434;-64
2021/04/29 05:37:25;;;;;;;5.57;3.77;;;;;;;10.44;88.18;99669.63;5055266;28;20446;-65
2021/04/29 05:39:51;;;;;;;6.57;3.40;;;;;;;10.53;88.71;99664.19;5054860;28;20497;-65
2021/04/29 05:42:17;;;;;;;5.40;3.77;;;;;;;10.64;88.73;99654.59;5055126;28;20442;-64
2021/04/29 05:44:44;;;;;;;11.67;3.87;;;;;;;10.68;88.43;99644.72;5055183;28;20861;-65
2021/04/29 05:47:10;;;;;;;12.33;5.43;;;;;;;10.72;87.46;99653.00;5054674;28;20962;-65
2021/04/29 05:49:36;;;;;;;5.73;3.03;;;;;;;10.68;86.89;99655.53;5054927;28;20571;-65
2021/04/29 05:52:02;;;;;;;9.00;2.87;;;;;;;10.70;87.12;99644.38;5054989;28;20962;-65
2021/04/29 05:54:28;;;;;;;8.63;4.20;;;;;;;10.71;87.27;99633.22;5054589;28;20469;-65
2021/04/29 05:56:54;;;;;;;4.93;3.13;;;;;;;10.76;88.26;99634.97;5054527;28;20446;-65
2021/04/29 05:59:20;;;;;;;7.53;3.30;;;;;;;10.78;89.03;99630.81;5054482;28;21114;-65
2021/04/29 06:01:47;;;;;;;3.27;2.50;;;;;;;10.77;89.03;99637.34;5054804;28;20456;-65
2021/04/29 06:04:13;;;;;;;6.20;3.73;;;;;;;10.85;90.12;99639.22;5054868;28;20454;-65
2021/04/29 06:06:39;;;;;;;8.10;5.10;;;;;;;10.94;91.85;99630.25;5054717;28;20442;-65
2021/04/29 06:09:05;;;;;;;7.00;3.47;;;;;;;10.86;92.13;99629.19;5054485;28;20545;-66
2021/04/29 06:11:32;;;;;;;7.27;3.93;;;;;;;10.77;92.18;99623.81;5054595;28;20443;-66
2021/04/29 06:13:57;;;;;;;6.03;3.50;;;;;;;10.81;92.13;99624.75;5054605;28;20446;-65
2021/04/29 06:16:23;;;;;;;6.30;2.33;;;;;;;10.93;92.11;99621.31;5054549;28;21198;-65
2021/04/29 06:18:50;;;;;;;9.20;4.73;;;;;;;11.03;92.08;99614.75;5054351;28;20520;-65
2021/04/29 06:21:16;;;;;;;5.77;3.37;;;;;;;11.07;91.28;99607.56;5054435;28;20446;-65
2021/04/29 06:23:42;;;;;;;5.97;2.63;;;;;;;11.12;91.78;99623.63;5054307;28;20491;-65
2021/04/29 06:26:08;;;;;;;5.53;3.93;;;;;;;11.15;91.78;99622.94;5054208;28;20437;-66
2021/04/29 06:28:34;;;;;;;8.20;5.30;;;;;;;11.15;92.54;99619.44;5053891;28;20494;-65
2021/04/29 06:31:00;;;;;;;5.90;3.13;;;;;;;11.17;93.01;99623.44;5054274;28;20454;-65
2021/04/29 06:33:26;;;;;;;4.00;3.10;;;;;;;11.19;93.41;99626.59;5054185;28;20446;-66
2021/04/29 06:35:55;;;;;;;6.70;3.50;;;;;;;11.24;93.13;99618.25;5054215;28;20438;-65
2021/04/29 06:38:21;;;;;;;7.27;3.93;;;;;;;11.18;93.23;99619.59;5053866;28;20477;-65
2021/04/29 06:40:47;;;;;;;6.37;4.20;;;;;;;11.18;93.14;99621.50;5054166;28;20488;-65
2021/04/29 06:43:13;;;;;;;4.23;3.37;;;;;;;11.13;92.69;99614.38;5053951;28;20449;-65
2021/04/29 06:45:40;;;;;;;7.97;3.80;;;;;;;11.14;92.97;99640.34;5053872;28;20815;-65
2021/04/29 06:48:07;;;;;;;5.90;4.13;;;;;;;11.14;92.58;99637.63;5053696;28;20489;-65
2021/04/29 06:50:33;;;;;;;6.50;3.20;;;;;;;11.13;92.04;99643.38;5053911;28;20446;-65
2021/04/29 06:53:00;;;;;;;9.23;4.53;;;;;;;11.07;91.82;99646.28;5053782;28;20888;-65
2021/04/29 06:55:26;;;;;;;7.87;4.03;;;;;;;11.00;91.38;99640.56;5053697;28;20442;-66
2021/04/29 06:57:52;;;;;;;6.80;3.53;;;;;;;10.94;92.31;99635.69;5053686;28;20496;-65
2021/04/29 07:00:19;;;;;;;4.43;2.67;;;;;;;10.91;93.21;99633.63;5053671;28;20446;-65
2021/04/29 07:02:45;;;;;;;4.13;3.10;;;;;;;10.89;94.23;99630.41;5053546;28;20438;-65
2021/04/29 07:05:12;;;;;;;7.33;2.70;;;;;;;10.90;94.63;99624.69;5053611;28;20830;-65
2021/04/29 07:07:38;;;;;;;5.20;3.83;;;;;;;11.00;94.78;99604.56;5052947;28;20458;-65
2021/04/29 07:10:05;;;;;;;5.23;3.40;;;;;;;11.03;95.28;99614.75;5053405;28;20470;-65
2021/04/29 07:12:31;;;;;;;7.47;3.60;;;;;;;11.13;95.44;99613.56;5053501;28;20833;-65
2021/04/29 07:14:57;;;;;;;7.03;3.27;;;;;;;11.20;95.88;99613.81;5053447;28;20435;-65
2021/04/29 07:17:23;;;;;;;3.50;2.60;;;;;;;11.26;95.98;99613.31;5053460;28;20438;-66
2021/04/29 07:19:49;;;;;;;4.37;2.60;;;;;;;11.25;96.28;99608.25;5053039;28;20485;-65
2021/04/29 07:22:15;;;;;;;5.03;3.27;;;;;;;11.27;96.52;99605.97;5052718;28;20482;-65
2021/04/29 07:24:42;;;;;;;3.47;2.70;;;;;;;11.32;96.67;99601.16;5053178;28;20444;-65
2021/04/29 07:27:10;;;;;;;3.60;1.90;;;;;;;11.41;96.36;99605.72;5053132;28;20449;-65
2021/04/29 07:29:36;;;;;;;2.97;2.30;;;;;;;11.42;96.58;99610.00;5052977;28;20493;-65
2021/04/29 07:32:03;;;;;;;5.47;3.30;;;;;;;11.43;96.52;99615.13;5053151;28;20448;-64
2021/04/29 07:34:29;;;;;;;5.53;3.50;;;;;;;11.41;96.65;99620.06;5053254;28;20446;-65
2021/04/29 07:36:58;;;;;;;7.73;3.50;;;;;;;11.39;96.04;99625.03;5053250;28;20815;-65
2021/04/29 07:39:24;;;;;;;3.57;2.47;;;;;;;11.35;95.16;99616.75;5052850;28;20858;-65
2021/04/29 07:41:50;;;;;;;4.20;3.47;;;;;;;11.33;94.97;99610.91;5053003;28;20533;-65
2021/04/29 07:44:16;;;;;;;4.90;3.03;;;;;;;11.31;95.11;99613.13;5052956;28;20442;-65
2021/04/29 07:46:42;;;;;;;2.97;2.53;;;;;;;11.30;95.42;99622.38;5052980;28;20497;-66
2021/04/29 07:49:08;;;;;;;3.43;3.13;;;;;;;11.27;95.91;99616.81;5052654;28;20477;-65
2021/04/29 07:51:35;;;;;;;7.23;3.10;;;;;;;11.21;96.82;99624.38;5052996;28;20586;-65
2021/04/29 07:54:03;;;;;;;5.27;2.70;;;;;;;11.19;97.86;99621.16;5052899;28;20445;-65
2021/04/29 07:56:29;;;;;;;4.37;3.17;;;;;;;11.13;99.24;99610.88;5052713;28;20973;-65
2021/04/29 07:58:55;;;;;;;5.33;3.23;;;;;;;11.14;99.41;99604.31;5052593;28;20462;-64
2021/04/29 08:01:21;;;;;;;5.03;3.70;;;;;;;11.11;100.00;99603.03;5052608;28;20434;-65
2021/04/29 08:03:47;;;;;;;3.40;2.50;;;;;;;11.06;100.00;99606.75;5052877;28;20438;-64
2021/04/29 08:06:13;;;;;;;3.53;3.30;;;;;;;11.10;100.00;99601.47;5052870;28;20449;-64
2021/04/29 08:08:39;;;;;;;5.57;2.90;;;;;;;11.15;100.00;99603.97;5052780;28;20502;-64
2021/04/29 08:11:06;;;;;;;4.43;3.60;;;;;;;11.19;100.00;99604.13;5052919;28;20823;-64
2021/04/29 08:13:31;;;;;;;4.73;2.03;;;;;;;11.21;100.00;99607.31;5053283;28;20442;-64
2021/04/29 08:15:58;;;;;;;5.73;3.60;;;;;;;11.21;100.00;99607.31;5052104;28;20584;-65
2021/04/29 08:18:25;;;;;;;11.63;3.63;;;;;;;11.03;100.00;99602.00;5051800;28;20473;-64
2021/04/29 08:20:52;;;;;;;5.30;3.80;;;;;;;11.03;100.00;99606.63;5055444;28;20959;-65
2021/04/29 08:23:18;;;;;;;3.60;2.90;;;;;;;10.94;100.00;99608.59;5057099;28;20457;-65
2021/04/29 08:25:44;;;;;;;10.23;4.10;;;;;;;10.93;100.00;99598.84;5056123;28;20982;-65
2021/04/29 08:28:11;;;;;;;5.67;3.30;;;;;;;10.95;100.00;99589.28;5056523;28;20498;-64
2021/04/29 08:30:37;;;;;;;5.53;2.93;;;;;;;10.99;100.00;99595.63;5056058;28;20442;-63
2021/04/29 08:33:03;;;;;;;5.27;3.10;;;;;;;11.01;100.00;99593.38;5056647;28;20473;-64
2021/04/29 08:35:30;;;;;;;3.73;2.57;;;;;;;10.94;100.00;99590.41;5056367;28;20446;-65
2021/04/29 08:37:56;;;;;;;4.43;3.07;;;;;;;10.91;100.00;99587.56;5056339;28;20442;-64
2021/04/29 08:40:24;;;;;;;2.97;2.50;;;;;;;10.92;100.00;99589.94;5056363;28;20450;-64
2021/04/29 08:42:49;;;;;;;5.97;3.90;;;;;;;10.99;100.00;99594.84;5036452;28;20431;-64
2021/04/29 08:45:17;;;;;;;4.97;3.20;;;;;;;11.04;100.00;99600.88;5036297;28;20446;-64
2021/04/29 08:47:49;;;;;;;4.30;2.90;;;;;;;11.07;100.00;99594.78;5055060;28;20536;-65
2021/04/29 08:50:15;;;;;;;7.53;3.87;;;;;;;11.13;100.00;99600.03;5055890;28;20820;-65
2021/04/29 08:52:42;;;;;;;5.83;2.70;;;;;;;11.21;100.00;99601.88;5055487;28;20491;-65
2021/04/29 08:55:09;;;;;;;3.63;2.87;;;;;;;11.26;100.00;99604.41;5055661;28;20450;-66
2021/04/29 08:57:35;;;;;;;7.13;2.93;;;;;;;11.23;100.00;99603.13;5056030;28;20434;-65
2021/04/29 09:00:01;;;;;;;4.30;2.60;;;;;;;11.27;100.00;99608.69;5055805;28;21044;-66
2021/04/29 09:02:33;;;;;;;4.80;3.20;;;;;;;11.28;100.00;99608.34;5055945;28;20438;-65
2021/04/29 09:05:12;;;;;;;9.63;3.03;;;;;;;11.23;100.00;99611.25;5055043;28;20823;-65
2021/04/29 09:07:38;;;;;;;4.90;2.33;;;;;;;11.16;100.00;99608.28;5055845;28;20437;-65
2021/04/29 09:10:07;;;;;;;3.57;3.20;;;;;;;11.22;100.00;99608.88;5055305;28;20485;-65
2021/04/29 09:12:34;;;;;;;4.20;2.93;;;;;;;11.22;100.00;99601.53;5055715;28;20446;-65
2021/04/29 09:15:00;;;;;;;6.63;4.23;;;;;;;11.25;100.00;99602.81;5055074;28;20959;-65
2021/04/29 09:17:27;;;;;;;9.73;3.40;;;;;;;11.22;100.00;99609.69;5055689;28;20492;-66
2021/04/29 09:19:53;;;;;;;6.23;3.00;;;;;;;11.20;100.00;99605.69;5055439;28;20512;-65
2021/04/29 09:22:20;;;;;;;4.20;2.73;;;;;;;11.25;100.00;99598.19;5055664;28;20434;-66
2021/04/29 09:24:47;;;;;;;4.60;2.20;;;;;;;11.33;100.00;99600.03;5054893;28;20819;-66
2021/04/29 09:27:15;;;;;;;5.50;2.63;;;;;;;11.36;100.00;99604.78;5055497;28;20442;-65
2021/04/29 09:29:54;;;;;;;5.40;3.53;;;;;;;11.40;100.00;99598.72;5055168;28;20573;-66
2021/04/29 09:32:28;;;;;;;3.70;2.40;;;;;;;11.39;100.00;99606.06;5055266;28;20434;-65
2021/04/29 09:34:54;;;;;;;4.93;2.80;;;;;;;11.36;100.00;99601.28;5055163;28;20430;-65
2021/04/29 09:37:33;;;;;;;3.90;2.60;;;;;;;11.44;100.00;99592.31;5055237;28;20443;-65
2021/04/29 09:40:00;;;;;;;5.73;2.80;;;;;;;11.56;100.00;99583.44;5078894;22;20501;-71
2021/04/29 09:42:32;;;;;;;7.40;3.43;;;;;;;11.68;100.00;99594.31;5054684;28;20462;-72
2021/04/29 09:44:59;;;;;;;4.43;3.30;;;;;;;11.73;100.00;99586.00;5054900;28;20449;-72
2021/04/29 09:47:26;;;;;;;6.37;2.90;;;;;;;11.84;100.00;99587.19;5054914;28;20442;-72
2021/04/29 09:49:52;;;;;;;6.03;3.50;;;;;;;11.89;100.00;99593.53;5054520;28;20497;-72
2021/04/29 09:52:20;;;;;;;5.40;3.30;;;;;;;11.92;100.00;99590.16;5054975;28;20438;-72
2021/04/29 09:54:47;;;;;;;8.20;4.20;;;;;;;11.94;100.00;99590.63;5054939;28;20445;-72
2021/04/29 09:57:16;;;;;;;6.83;3.63;;;;;;;11.94;100.00;99601.47;5054546;28;21008;-72
2021/04/29 09:59:45;;;;;;;5.10;2.90;;;;;;;11.93;100.00;99594.47;5054818;28;20477;-72
2021/04/29 10:02:12;;;;;;;5.77;3.63;;;;;;;11.95;100.00;99606.56;5054783;28;20485;-72
2021/04/29 10:04:40;;;;;;;6.33;2.90;;;;;;;12.07;100.00;99601.16;5054601;28;20958;-71
2021/04/29 10:07:07;;;;;;;9.17;4.50;;;;;;;12.19;100.00;99603.13;5054667;28;20809;-72
2021/04/29 10:09:34;;;;;;;9.03;4.73;;;;;;;12.23;100.00;99609.47;5054523;28;20513;-72
2021/04/29 10:12:04;;;;;;;6.63;3.90;;;;;;;12.21;100.00;99605.50;5054408;28;20434;-72
2021/04/29 10:14:33;;;;;;;6.40;3.13;;;;;;;12.19;100.00;99618.63;5054706;28;20422;-72
2021/04/29 10:17:03;;;;;;;7.07;4.10;;;;;;;12.15;100.00;99607.66;5053767;28;20952;-72
2021/04/29 10:19:31;;;;;;;6.70;3.63;;;;;;;12.19;100.00;99613.19;5054312;28;20813;-72
2021/04/29 10:21:59;;;;;;;5.53;3.03;;;;;;;12.20;100.00;99621.00;5054448;28;20474;-72
2021/04/29 10:24:25;;;;;;;6.27;4.83;;;;;;;12.23;100.00;99625.78;5054376;28;20451;-72
2021/04/29 10:27:00;;;;;;;7.83;3.40;;;;;;;12.26;100.00;99624.28;5054456;28;20464;-72
2021/04/29 10:29:26;;;;;;;8.40;4.60;;;;;;;12.25;100.00;99628.94;5054198;28;20580;-72
2021/04/29 10:31:56;;;;;;;9.50;4.70;;;;;;;12.36;100.00;99626.59;5054322;28;20796;-72
2021/04/29 10:34:22;;;;;;;7.63;4.40;;;;;;;12.63;100.00;99622.44;5054149;28;20687;-72
2021/04/29 10:36:49;;;;;;;7.40;4.40;;;;;;;12.96;100.00;99625.03;5054113;28;20446;-71
2021/04/29 10:39:17;;;;;;;6.40;4.93;;;;;;;13.22;98.53;99630.16;5053639;28;20474;-72
2021/04/29 10:41:45;;;;;;;8.00;4.90;;;;;;;13.56;98.01;99625.34;5053805;28;20433;-72
2021/04/29 10:44:13;;;;;;;12.60;5.93;;;;;;;13.96;96.85;99627.25;5053396;28;20787;-72
2021/04/29 10:46:40;;;;;;;7.60;4.70;;;;;;;14.11;94.09;99621.81;5053959;28;20442;-72
2021/04/29 10:49:08;;;;;;;10.23;5.43;;;;;;;14.33;93.53;99634.06;5053786;28;20873;-72
2021/04/29 10:51:36;;;;;;;10.67;5.70;;;;;;;14.63;93.68;99630.97;5053815;28;20442;-72
2021/04/29 10:54:11;;;;;;;8.73;5.30;;;;;;;14.64;91.20;99635.28;5053727;28;20449;-73
2021/04/29 10:56:37;;;;;;;8.30;5.53;;;;;;;14.48;91.46;99637.19;5053770;28;20438;-70
2021/04/29 10:59:11;;;;;;;9.40;5.87;;;;;;;14.37;90.78;99643.13;5053617;28;20458;-71
2021/04/29 11:01:42;;;;;;;8.10;5.40;;;;;;;14.00;90.70;99645.25;5053728;28;20426;-70
2021/04/29 11:04:19;;;;;;;11.57;5.77;;;;;;;13.96;90.63;99649.03;5053477;28;20446;-71
2021/04/29 11:06:47;;;;;;;10.13;5.03;;;;;;;13.93;91.41;99646.97;5053500;28;20449;-72
2021/04/29 11:09:18;;;;;;;12.20;6.13;;;;;;;13.89;90.90;99644.16;5053360;28;20486;-72
2021/04/29 11:11:45;;;;;;;6.90;5.23;;;;;;;13.85;90.25;99651.44;5053595;28;20450;-73
2021/04/29 11:14:13;;;;;;;9.07;4.97;;;;;;;14.25;91.55;99648.63;5053474;28;20469;-72
2021/04/29 11:16:50;;;;;;;8.17;5.00;;;;;;;15.10;90.23;99639.13;5059331;28;20943;-73
2021/04/29 11:19:56;;;;;;;9.17;5.17;;;;;;;15.56;84.19;99642.09;5053762;28;20536;-72
2021/04/29 11:22:26;;;;;;;13.93;7.47;;;;;;;15.65;83.05;99636.44;5011429;28;20631;-73
2021/04/29 11:24:53;;;;;;;9.43;5.10;;;;;;;16.03;83.29;99649.31;5011324;28;20457;-72
2021/04/29 11:27:27;;;;;;;7.60;4.23;;;;;;;16.04;81.31;99647.38;5032544;28;20450;-73
2021/04/29 11:30:00;;;;;;;10.53;5.00;;;;;;;15.77;81.04;99651.91;5053054;28;20486;-74
2021/04/29 11:32:26;;;;;;;8.67;4.97;;;;;;;15.63;81.63;99646.91;5053158;28;20435;-74
2021/04/29 11:34:54;;;;;;;9.10;5.33;;;;;;;15.46;82.88;99647.31;5053009;28;20438;-72